sensor_id;sensor_type;location;lat;lon;timestamp;temperature;humidity
17599;DHT22;8918;52.092;5.232;2022-07-29T00:02:07;17.50;99.90
17599;DHT22;8918;52.092;5.232;2022-07-29T00:04:34;17.50;99.90
17599;DHT22;8918;52.092;5.232;2022-07-29T00:07:00;17.50;99.90
17599;DHT22;8918;52.092;5.232;2022-07-29T00:09:26;17.50;99.90
17599;DHT22;8918;52.092;5.232;2022-07-29T00:11:51;17.40;99.90
17599;DHT22;8918;52.092;5.232;2022-07-29T00:14:17;17.40;99.90
17599;DHT22;8918;52.092;5.232;2022-07-29T00:16:42;17.40;99.90
17599;DHT22;8918;52.092;5.232;2022-07-29T00:19:08;17.40;99.90
17599;DHT22;8918;52.092;5.232;2022-07-29T00:21:34;17.40;99.90
17599;DHT22;8918;52.092;5.232;2022-07-29T00:23:59;17.40;99.90
17599;DHT22;8918;52.092;5.232;2022-07-29T00:26:25;17.30;99.90
17599;DHT22;8918;52.092;5.232;2022-07-29T00:28:52;17.20;99.90
17599;DHT22;8918;52.092;5.232;2022-07-29T00:31:18;17.30;99.90
17599;DHT22;8918;52.092;5.232;2022-07-29T00:33:44;17.20;99.90
17599;DHT22;8918;52.092;5.232;2022-07-29T00:36:09;17.20;99.90
17599;DHT22;8918;52.092;5.232;2022-07-29T00:38:35;17.10;99.90
17599;DHT22;8918;52.092;5.232;2022-07-29T00:41:00;17.10;99.90
17599;DHT22;8918;52.092;5.232;2022-07-29T00:43:26;17.00;99.90
17599;DHT22;8918;52.092;5.232;2022-07-29T00:45:52;17.00;99.90
17599;DHT22;8918;52.092;5.232;2022-07-29T00:48:18;17.00;99.90
17599;DHT22;8918;52.092;5.232;2022-07-29T00:50:43;17.00;99.90
17599;DHT22;8918;52.092;5.232;2022-07-29T00:53:11;17.00;99.90
17599;DHT22;8918;52.092;5.232;2022-07-29T00:55:37;17.00;99.90
17599;DHT22;8918;52.092;5.232;2022-07-29T00:58:03;16.90;99.90
17599;DHT22;8918;52.092;5.232;2022-07-29T01:00:29;16.90;99.90
17599;DHT22;8918;52.092;5.232;2022-07-29T01:02:54;16.90;99.90
17599;DHT22;8918;52.092;5.232;2022-07-29T01:05:22;16.80;99.90
17599;DHT22;8918;52.092;5.232;2022-07-29T01:07:51;16.80;99.90
17599;DHT22;8918;52.092;5.232;2022-07-29T01:10:18;16.80;99.90
17599;DHT22;8918;52.092;5.232;2022-07-29T01:12:49;16.80;99.90
17599;DHT22;8918;52.092;5.232;2022-07-29T01:15:15;16.80;99.90
17599;DHT22;8918;52.092;5.232;2022-07-29T01:20:34;16.80;99.90
17599;DHT22;8918;52.092;5.232;2022-07-29T01:25:53;16.80;99.90
17599;DHT22;8918;52.092;5.232;2022-07-29T01:31:05;16.80;99.90
17599;DHT22;8918;52.092;5.232;2022-07-29T01:33:41;16.70;99.90
17599;DHT22;8918;52.092;5.232;2022-07-29T01:36:35;16.70;99.90
17599;DHT22;8918;52.092;5.232;2022-07-29T01:39:08;16.70;99.90
17599;DHT22;8918;52.092;5.232;2022-07-29T01:41:37;16.60;99.90
17599;DHT22;8918;52.092;5.232;2022-07-29T01:44:19;16.60;99.90
17599;DHT22;8918;52.092;5.232;2022-07-29T01:46:58;16.60;99.90
17599;DHT22;8918;52.092;5.232;2022-07-29T01:49:27;16.50;99.90
17599;DHT22;8918;52.092;5.232;2022-07-29T01:52:28;16.50;99.90
17599;DHT22;8918;52.092;5.232;2022-07-29T01:54:58;16.50;99.90
17599;DHT22;8918;52.092;5.232;2022-07-29T01:57:29;16.50;99.90
17599;DHT22;8918;52.092;5.232;2022-07-29T01:59:58;16.50;99.90
17599;DHT22;8918;52.092;5.232;2022-07-29T02:02:26;16.50;99.90
17599;DHT22;8918;52.092;5.232;2022-07-29T02:04:54;16.50;99.90
17599;DHT22;8918;52.092;5.232;2022-07-29T02:07:21;16.50;99.90
17599;DHT22;8918;52.092;5.232;2022-07-29T02:09:50;16.50;99.90
17599;DHT22;8918;52.092;5.232;2022-07-29T02:12:18;16.50;99.90
17599;DHT22;8918;52.092;5.232;2022-07-29T02:14:47;16.50;99.90
17599;DHT22;8918;52.092;5.232;2022-07-29T02:17:13;16.50;99.90
17599;DHT22;8918;52.092;5.232;2022-07-29T02:19:41;16.50;99.90
17599;DHT22;8918;52.092;5.232;2022-07-29T02:22:10;16.50;99.90
17599;DHT22;8918;52.092;5.232;2022-07-29T02:24:38;16.40;99.90
17599;DHT22;8918;52.092;5.232;2022-07-29T02:27:07;16.40;99.90
17599;DHT22;8918;52.092;5.232;2022-07-29T02:29:34;16.40;99.90
17599;DHT22;8918;52.092;5.232;2022-07-29T02:32:01;16.40;99.90
17599;DHT22;8918;52.092;5.232;2022-07-29T02:34:28;16.40;99.90
17599;DHT22;8918;52.092;5.232;2022-07-29T02:36:55;16.40;99.90
17599;DHT22;8918;52.092;5.232;2022-07-29T02:39:21;16.40;99.90
17599;DHT22;8918;52.092;5.232;2022-07-29T02:41:50;16.40;99.90
17599;DHT22;8918;52.092;5.232;2022-07-29T02:44:21;16.40;99.90
17599;DHT22;8918;52.092;5.232;2022-07-29T02:52:20;16.30;99.90
17599;DHT22;8918;52.092;5.232;2022-07-29T02:54:59;16.30;99.90
17599;DHT22;8918;52.092;5.232;2022-07-29T02:57:34;16.30;99.90
17599;DHT22;8918;52.092;5.232;2022-07-29T03:00:04;16.30;99.90
17599;DHT22;8918;52.092;5.232;2022-07-29T03:02:34;16.30;99.90
17599;DHT22;8918;52.092;5.232;2022-07-29T03:05:01;16.30;99.90
17599;DHT22;8918;52.092;5.232;2022-07-29T03:07:27;16.20;99.90
17599;DHT22;8918;52.092;5.232;2022-07-29T03:09:54;16.30;99.90
17599;DHT22;8918;52.092;5.232;2022-07-29T03:12:20;16.20;99.90
17599;DHT22;8918;52.092;5.232;2022-07-29T03:14:46;16.20;99.90
17599;DHT22;8918;52.092;5.232;2022-07-29T03:17:12;16.20;99.90
17599;DHT22;8918;52.092;5.232;2022-07-29T03:19:39;16.20;99.90
17599;DHT22;8918;52.092;5.232;2022-07-29T03:22:06;16.10;99.90
17599;DHT22;8918;52.092;5.232;2022-07-29T03:24:34;16.10;99.90
17599;DHT22;8918;52.092;5.232;2022-07-29T03:27:00;16.10;99.90
17599;DHT22;8918;52.092;5.232;2022-07-29T03:29:27;16.10;99.90
17599;DHT22;8918;52.092;5.232;2022-07-29T03:31:53;16.20;99.90
17599;DHT22;8918;52.092;5.232;2022-07-29T03:34:19;16.20;99.90
17599;DHT22;8918;52.092;5.232;2022-07-29T03:36:44;16.10;99.90
17599;DHT22;8918;52.092;5.232;2022-07-29T03:39:12;16.20;99.90
17599;DHT22;8918;52.092;5.232;2022-07-29T03:41:41;16.20;99.90
17599;DHT22;8918;52.092;5.232;2022-07-29T03:44:08;16.10;99.90
17599;DHT22;8918;52.092;5.232;2022-07-29T03:46:35;16.10;99.90
17599;DHT22;8918;52.092;5.232;2022-07-29T03:49:03;16.10;99.90
17599;DHT22;8918;52.092;5.232;2022-07-29T03:51:29;16.10;99.90
17599;DHT22;8918;52.092;5.232;2022-07-29T03:53:55;16.00;99.90
17599;DHT22;8918;52.092;5.232;2022-07-29T03:56:22;16.00;99.90
17599;DHT22;8918;52.092;5.232;2022-07-29T03:58:50;16.00;99.90
17599;DHT22;8918;52.092;5.232;2022-07-29T04:01:17;16.00;99.90
17599;DHT22;8918;52.092;5.232;2022-07-29T04:03:44;16.00;99.90
17599;DHT22;8918;52.092;5.232;2022-07-29T04:06:11;16.00;99.90
17599;DHT22;8918;52.092;5.232;2022-07-29T04:08:37;16.00;99.90
17599;DHT22;8918;52.092;5.232;2022-07-29T04:11:04;16.00;99.90
17599;DHT22;8918;52.092;5.232;2022-07-29T04:13:30;15.90;99.90
17599;DHT22;8918;52.092;5.232;2022-07-29T04:15:56;15.90;99.90
17599;DHT22;8918;52.092;5.232;2022-07-29T04:18:21;15.90;99.90
17599;DHT22;8918;52.092;5.232;2022-07-29T04:20:47;16.00;99.90
17599;DHT22;8918;52.092;5.232;2022-07-29T04:23:12;16.00;99.90
17599;DHT22;8918;52.092;5.232;2022-07-29T04:25:39;15.90;99.90
17599;DHT22;8918;52.092;5.232;2022-07-29T04:28:05;15.90;99.90
17599;DHT22;8918;52.092;5.232;2022-07-29T04:30:32;15.90;99.90
17599;DHT22;8918;52.092;5.232;2022-07-29T04:32:59;15.90;99.90
17599;DHT22;8918;52.092;5.232;2022-07-29T04:35:26;15.90;99.90
17599;DHT22;8918;52.092;5.232;2022-07-29T04:37:52;15.90;99.90
17599;DHT22;8918;52.092;5.232;2022-07-29T04:40:17;15.90;99.90
17599;DHT22;8918;52.092;5.232;2022-07-29T04:42:43;15.90;99.90
17599;DHT22;8918;52.092;5.232;2022-07-29T04:45:09;15.90;99.90
17599;DHT22;8918;52.092;5.232;2022-07-29T04:47:34;15.90;99.90
17599;DHT22;8918;52.092;5.232;2022-07-29T04:50:00;15.90;99.90
17599;DHT22;8918;52.092;5.232;2022-07-29T04:52:29;16.00;99.90
17599;DHT22;8918;52.092;5.232;2022-07-29T04:54:57;16.00;99.90
17599;DHT22;8918;52.092;5.232;2022-07-29T04:57:23;16.00;99.90
17599;DHT22;8918;52.092;5.232;2022-07-29T04:59:49;16.00;99.90
17599;DHT22;8918;52.092;5.232;2022-07-29T05:02:14;16.10;99.90
17599;DHT22;8918;52.092;5.232;2022-07-29T05:04:40;16.10;99.90
17599;DHT22;8918;52.092;5.232;2022-07-29T05:07:05;16.10;99.90
17599;DHT22;8918;52.092;5.232;2022-07-29T05:09:31;16.10;99.90
17599;DHT22;8918;52.092;5.232;2022-07-29T05:11:57;16.10;99.90
17599;DHT22;8918;52.092;5.232;2022-07-29T05:14:23;16.10;99.90
17599;DHT22;8918;52.092;5.232;2022-07-29T05:16:49;16.10;99.90
17599;DHT22;8918;52.092;5.232;2022-07-29T05:19:16;16.10;99.90
17599;DHT22;8918;52.092;5.232;2022-07-29T05:21:42;16.10;99.90
17599;DHT22;8918;52.092;5.232;2022-07-29T05:24:09;16.10;99.90
17599;DHT22;8918;52.092;5.232;2022-07-29T05:26:35;16.20;99.90
17599;DHT22;8918;52.092;5.232;2022-07-29T05:29:00;16.20;99.90
17599;DHT22;8918;52.092;5.232;2022-07-29T05:31:27;16.20;99.90
17599;DHT22;8918;52.092;5.232;2022-07-29T05:33:53;16.20;99.90
17599;DHT22;8918;52.092;5.232;2022-07-29T05:36:18;16.20;99.90
17599;DHT22;8918;52.092;5.232;2022-07-29T05:38:44;16.20;99.90
17599;DHT22;8918;52.092;5.232;2022-07-29T05:41:11;16.20;99.90
17599;DHT22;8918;52.092;5.232;2022-07-29T05:43:36;16.20;99.90
17599;DHT22;8918;52.092;5.232;2022-07-29T05:46:02;16.30;99.90
17599;DHT22;8918;52.092;5.232;2022-07-29T05:48:28;16.30;99.90
17599;DHT22;8918;52.092;5.232;2022-07-29T05:50:54;16.30;99.90
17599;DHT22;8918;52.092;5.232;2022-07-29T05:53:22;16.30;99.90
17599;DHT22;8918;52.092;5.232;2022-07-29T05:55:49;16.20;99.90
17599;DHT22;8918;52.092;5.232;2022-07-29T05:58:14;16.30;99.90
17599;DHT22;8918;52.092;5.232;2022-07-29T06:00:40;16.30;99.90
17599;DHT22;8918;52.092;5.232;2022-07-29T06:03:06;16.30;99.90
17599;DHT22;8918;52.092;5.232;2022-07-29T06:05:32;16.30;99.90
17599;DHT22;8918;52.092;5.232;2022-07-29T06:07:57;16.40;99.90
17599;DHT22;8918;52.092;5.232;2022-07-29T06:10:23;16.40;99.90
17599;DHT22;8918;52.092;5.232;2022-07-29T06:12:50;16.40;99.90
17599;DHT22;8918;52.092;5.232;2022-07-29T06:15:16;16.40;99.90
17599;DHT22;8918;52.092;5.232;2022-07-29T06:17:42;16.40;99.90
17599;DHT22;8918;52.092;5.232;2022-07-29T06:20:09;16.40;99.90
17599;DHT22;8918;52.092;5.232;2022-07-29T06:22:34;16.40;99.90
17599;DHT22;8918;52.092;5.232;2022-07-29T06:25:01;16.40;99.90
17599;DHT22;8918;52.092;5.232;2022-07-29T06:27:27;16.40;99.90
17599;DHT22;8918;52.092;5.232;2022-07-29T06:29:53;16.50;99.90
17599;DHT22;8918;52.092;5.232;2022-07-29T06:32:19;16.50;99.90
17599;DHT22;8918;52.092;5.232;2022-07-29T06:34:44;16.60;99.90
17599;DHT22;8918;52.092;5.232;2022-07-29T06:37:10;16.70;99.90
17599;DHT22;8918;52.092;5.232;2022-07-29T06:39:36;16.80;99.90
17599;DHT22;8918;52.092;5.232;2022-07-29T06:42:03;16.80;99.90
17599;DHT22;8918;52.092;5.232;2022-07-29T06:44:30;16.90;99.90
17599;DHT22;8918;52.092;5.232;2022-07-29T06:47:00;17.00;99.90
17599;DHT22;8918;52.092;5.232;2022-07-29T06:49:29;17.10;99.90
17599;DHT22;8918;52.092;5.232;2022-07-29T06:51:58;17.20;99.90
17599;DHT22;8918;52.092;5.232;2022-07-29T06:54:23;17.20;99.90
17599;DHT22;8918;52.092;5.232;2022-07-29T06:56:49;17.20;99.90
17599;DHT22;8918;52.092;5.232;2022-07-29T06:59:15;17.30;99.90
17599;DHT22;8918;52.092;5.232;2022-07-29T07:01:42;17.30;99.90
17599;DHT22;8918;52.092;5.232;2022-07-29T07:04:09;17.40;99.90
17599;DHT22;8918;52.092;5.232;2022-07-29T07:06:35;17.50;99.90
17599;DHT22;8918;52.092;5.232;2022-07-29T07:09:01;17.50;99.90
17599;DHT22;8918;52.092;5.232;2022-07-29T07:11:29;17.50;99.90
17599;DHT22;8918;52.092;5.232;2022-07-29T07:13:56;17.40;99.90
17599;DHT22;8918;52.092;5.232;2022-07-29T07:16:22;17.40;99.90
17599;DHT22;8918;52.092;5.232;2022-07-29T07:18:47;17.40;99.90
17599;DHT22;8918;52.092;5.232;2022-07-29T07:21:13;17.40;99.90
17599;DHT22;8918;52.092;5.232;2022-07-29T07:23:39;17.30;99.90
17599;DHT22;8918;52.092;5.232;2022-07-29T07:26:07;17.30;99.90
17599;DHT22;8918;52.092;5.232;2022-07-29T07:28:33;17.30;99.90
17599;DHT22;8918;52.092;5.232;2022-07-29T07:30:58;17.40;99.90
17599;DHT22;8918;52.092;5.232;2022-07-29T07:33:24;17.40;99.90
17599;DHT22;8918;52.092;5.232;2022-07-29T07:35:53;17.50;99.90
17599;DHT22;8918;52.092;5.232;2022-07-29T07:38:19;17.60;99.90
17599;DHT22;8918;52.092;5.232;2022-07-29T07:40:44;17.70;99.90
17599;DHT22;8918;52.092;5.232;2022-07-29T07:43:11;17.80;99.90
17599;DHT22;8918;52.092;5.232;2022-07-29T07:45:37;17.80;99.90
17599;DHT22;8918;52.092;5.232;2022-07-29T07:48:03;17.80;99.90
17599;DHT22;8918;52.092;5.232;2022-07-29T07:50:28;17.90;99.90
17599;DHT22;8918;52.092;5.232;2022-07-29T07:52:59;17.90;99.90
17599;DHT22;8918;52.092;5.232;2022-07-29T07:55:27;17.80;99.90
17599;DHT22;8918;52.092;5.232;2022-07-29T07:57:54;17.80;99.90
17599;DHT22;8918;52.092;5.232;2022-07-29T08:00:20;17.90;99.90
17599;DHT22;8918;52.092;5.232;2022-07-29T08:02:46;18.00;99.90
17599;DHT22;8918;52.092;5.232;2022-07-29T08:05:13;18.10;99.90
17599;DHT22;8918;52.092;5.232;2022-07-29T08:07:43;18.20;99.90
17599;DHT22;8918;52.092;5.232;2022-07-29T08:10:09;18.20;99.90
17599;DHT22;8918;52.092;5.232;2022-07-29T08:12:34;18.30;99.90
17599;DHT22;8918;52.092;5.232;2022-07-29T08:15:00;18.30;99.90
17599;DHT22;8918;52.092;5.232;2022-07-29T08:17:27;18.30;99.90
17599;DHT22;8918;52.092;5.232;2022-07-29T08:19:53;18.30;99.90
17599;DHT22;8918;52.092;5.232;2022-07-29T08:22:19;18.30;99.90
17599;DHT22;8918;52.092;5.232;2022-07-29T08:24:45;18.40;99.90
17599;DHT22;8918;52.092;5.232;2022-07-29T08:27:23;18.40;99.90
17599;DHT22;8918;52.092;5.232;2022-07-29T08:29:48;18.50;99.90
17599;DHT22;8918;52.092;5.232;2022-07-29T08:32:14;18.60;99.90
17599;DHT22;8918;52.092;5.232;2022-07-29T08:34:40;18.70;99.90
17599;DHT22;8918;52.092;5.232;2022-07-29T08:37:05;18.70;99.90
17599;DHT22;8918;52.092;5.232;2022-07-29T08:39:31;18.80;99.90
17599;DHT22;8918;52.092;5.232;2022-07-29T08:41:56;18.90;99.90
17599;DHT22;8918;52.092;5.232;2022-07-29T08:44:22;19.10;99.90
17599;DHT22;8918;52.092;5.232;2022-07-29T08:46:49;19.20;99.90
17599;DHT22;8918;52.092;5.232;2022-07-29T08:49:15;19.20;99.90
17599;DHT22;8918;52.092;5.232;2022-07-29T08:51:41;19.30;99.90
17599;DHT22;8918;52.092;5.232;2022-07-29T08:54:11;19.30;99.90
17599;DHT22;8918;52.092;5.232;2022-07-29T08:56:38;19.40;99.90
17599;DHT22;8918;52.092;5.232;2022-07-29T08:59:08;19.40;99.90
17599;DHT22;8918;52.092;5.232;2022-07-29T09:01:37;19.50;99.90
17599;DHT22;8918;52.092;5.232;2022-07-29T09:04:10;19.60;99.90
17599;DHT22;8918;52.092;5.232;2022-07-29T09:06:44;19.80;99.90
17599;DHT22;8918;52.092;5.232;2022-07-29T09:09:10;20.00;99.90
17599;DHT22;8918;52.092;5.232;2022-07-29T09:11:36;20.10;99.90
17599;DHT22;8918;52.092;5.232;2022-07-29T09:14:02;20.20;99.90
17599;DHT22;8918;52.092;5.232;2022-07-29T09:16:47;20.30;99.90
17599;DHT22;8918;52.092;5.232;2022-07-29T09:19:23;20.40;99.90
17599;DHT22;8918;52.092;5.232;2022-07-29T09:21:49;20.50;99.90
17599;DHT22;8918;52.092;5.232;2022-07-29T09:27:08;20.80;99.90
17599;DHT22;8918;52.092;5.232;2022-07-29T09:29:35;20.90;99.90
17599;DHT22;8918;52.092;5.232;2022-07-29T09:32:06;20.90;99.90
17599;DHT22;8918;52.092;5.232;2022-07-29T09:34:33;21.00;99.90
17599;DHT22;8918;52.092;5.232;2022-07-29T09:36:58;21.20;99.90
17599;DHT22;8918;52.092;5.232;2022-07-29T09:39:32;21.30;99.90
17599;DHT22;8918;52.092;5.232;2022-07-29T09:42:01;21.40;99.90
17599;DHT22;8918;52.092;5.232;2022-07-29T09:44:44;21.50;99.90
17599;DHT22;8918;52.092;5.232;2022-07-29T09:47:10;21.70;99.90
17599;DHT22;8918;52.092;5.232;2022-07-29T09:49:58;21.80;99.90
17599;DHT22;8918;52.092;5.232;2022-07-29T09:52:50;21.90;99.90
17599;DHT22;8918;52.092;5.232;2022-07-29T09:55:17;22.10;99.90
17599;DHT22;8918;52.092;5.232;2022-07-29T09:57:43;22.10;99.90
17599;DHT22;8918;52.092;5.232;2022-07-29T10:00:18;22.00;99.90
17599;DHT22;8918;52.092;5.232;2022-07-29T10:02:45;22.00;99.90
17599;DHT22;8918;52.092;5.232;2022-07-29T10:05:25;22.20;99.90
17599;DHT22;8918;52.092;5.232;2022-07-29T10:07:58;22.30;99.90
17599;DHT22;8918;52.092;5.232;2022-07-29T10:10:24;22.50;99.90
17599;DHT22;8918;52.092;5.232;2022-07-29T10:13:03;22.60;99.90
17599;DHT22;8918;52.092;5.232;2022-07-29T10:15:31;22.70;99.90
17599;DHT22;8918;52.092;5.232;2022-07-29T10:17:58;22.90;99.90
17599;DHT22;8918;52.092;5.232;2022-07-29T10:20:27;23.00;99.90
17599;DHT22;8918;52.092;5.232;2022-07-29T10:22:54;23.10;99.90
17599;DHT22;8918;52.092;5.232;2022-07-29T10:25:22;23.40;99.90
17599;DHT22;8918;52.092;5.232;2022-07-29T10:27:49;23.40;99.90
17599;DHT22;8918;52.092;5.232;2022-07-29T10:30:17;23.50;99.90
17599;DHT22;8918;52.092;5.232;2022-07-29T10:38:53;23.80;99.90
17599;DHT22;8918;52.092;5.232;2022-07-29T10:44:16;23.90;99.90
17599;DHT22;8918;52.092;5.232;2022-07-29T10:46:42;23.70;99.90
17599;DHT22;8918;52.092;5.232;2022-07-29T10:49:23;23.70;99.90
17599;DHT22;8918;52.092;5.232;2022-07-29T10:52:07;23.70;99.90
17599;DHT22;8918;52.092;5.232;2022-07-29T10:54:44;23.70;99.90
17599;DHT22;8918;52.092;5.232;2022-07-29T10:57:29;23.60;99.90
17599;DHT22;8918;52.092;5.232;2022-07-29T11:05:03;23.40;99.90
17599;DHT22;8918;52.092;5.232;2022-07-29T11:07:32;23.30;99.90
17599;DHT22;8918;52.092;5.232;2022-07-29T11:15:13;23.30;99.90
17599;DHT22;8918;52.092;5.232;2022-07-29T11:23:31;24.30;99.90
17599;DHT22;8918;52.092;5.232;2022-07-29T11:26:19;24.50;99.90
17599;DHT22;8918;52.092;5.232;2022-07-29T11:29:04;24.70;99.90
17599;DHT22;8918;52.092;5.232;2022-07-29T11:39:47;24.70;99.90
17599;DHT22;8918;52.092;5.232;2022-07-29T11:45:01;24.80;99.90
17599;DHT22;8918;52.092;5.232;2022-07-29T11:47:29;24.90;99.90
17599;DHT22;8918;52.092;5.232;2022-07-29T11:49:58;25.00;99.90
17599;DHT22;8918;52.092;5.232;2022-07-29T11:52:35;25.00;99.90
17599;DHT22;8918;52.092;5.232;2022-07-29T11:55:05;25.00;99.90
17599;DHT22;8918;52.092;5.232;2022-07-29T11:57:33;25.10;99.90
17599;DHT22;8918;52.092;5.232;2022-07-29T12:00:00;25.20;99.90
17599;DHT22;8918;52.092;5.232;2022-07-29T12:02:42;25.60;99.90
17599;DHT22;8918;52.092;5.232;2022-07-29T12:05:09;25.90;99.90
17599;DHT22;8918;52.092;5.232;2022-07-29T12:07:35;26.20;99.90
17599;DHT22;8918;52.092;5.232;2022-07-29T12:10:05;26.40;99.90
17599;DHT22;8918;52.092;5.232;2022-07-29T12:12:31;26.40;99.90
17599;DHT22;8918;52.092;5.232;2022-07-29T12:14:56;26.30;99.90
17599;DHT22;8918;52.092;5.232;2022-07-29T12:20:01;26.20;99.90
17599;DHT22;8918;52.092;5.232;2022-07-29T12:22:33;26.10;99.90
17599;DHT22;8918;52.092;5.232;2022-07-29T12:25:07;26.00;99.90
17599;DHT22;8918;52.092;5.232;2022-07-29T12:27:35;26.10;99.90
17599;DHT22;8918;52.092;5.232;2022-07-29T12:30:03;26.10;99.90
17599;DHT22;8918;52.092;5.232;2022-07-29T12:32:35;26.10;99.90
17599;DHT22;8918;52.092;5.232;2022-07-29T12:35:08;26.00;99.90
17599;DHT22;8918;52.092;5.232;2022-07-29T12:37:35;25.90;99.90
17599;DHT22;8918;52.092;5.232;2022-07-29T12:40:03;25.80;99.90
17599;DHT22;8918;52.092;5.232;2022-07-29T12:42:30;25.60;99.90
17599;DHT22;8918;52.092;5.232;2022-07-29T12:44:59;25.60;99.90
17599;DHT22;8918;52.092;5.232;2022-07-29T12:47:27;25.60;99.90
17599;DHT22;8918;52.092;5.232;2022-07-29T12:50:19;25.80;99.90
17599;DHT22;8918;52.092;5.232;2022-07-29T12:52:45;25.80;99.90
17599;DHT22;8918;52.092;5.232;2022-07-29T12:55:11;25.90;99.90
17599;DHT22;8918;52.092;5.232;2022-07-29T12:57:48;26.00;99.90
17599;DHT22;8918;52.092;5.232;2022-07-29T13:00:15;26.00;99.90
17599;DHT22;8918;52.092;5.232;2022-07-29T13:02:41;26.00;99.90
17599;DHT22;8918;52.092;5.232;2022-07-29T13:05:08;26.00;99.90
17599;DHT22;8918;52.092;5.232;2022-07-29T13:07:35;26.10;99.90
17599;DHT22;8918;52.092;5.232;2022-07-29T13:12:36;26.20;99.90
17599;DHT22;8918;52.092;5.232;2022-07-29T13:15:15;26.00;99.90
17599;DHT22;8918;52.092;5.232;2022-07-29T13:17:42;25.80;99.90
17599;DHT22;8918;52.092;5.232;2022-07-29T13:20:10;25.50;99.90
17599;DHT22;8918;52.092;5.232;2022-07-29T13:22:41;25.30;99.90
17599;DHT22;8918;52.092;5.232;2022-07-29T13:25:08;25.20;99.90
17599;DHT22;8918;52.092;5.232;2022-07-29T13:27:37;25.20;99.90
17599;DHT22;8918;52.092;5.232;2022-07-29T13:30:07;25.30;99.90
17599;DHT22;8918;52.092;5.232;2022-07-29T13:32:34;25.40;99.90
17599;DHT22;8918;52.092;5.232;2022-07-29T13:35:02;25.40;99.90
17599;DHT22;8918;52.092;5.232;2022-07-29T13:37:29;25.40;99.90
17599;DHT22;8918;52.092;5.232;2022-07-29T13:39:58;25.30;99.90
17599;DHT22;8918;52.092;5.232;2022-07-29T13:42:24;25.30;99.90
17599;DHT22;8918;52.092;5.232;2022-07-29T13:44:52;25.40;99.90
17599;DHT22;8918;52.092;5.232;2022-07-29T13:47:19;25.40;99.90
17599;DHT22;8918;52.092;5.232;2022-07-29T13:49:45;25.70;99.90
17599;DHT22;8918;52.092;5.232;2022-07-29T13:52:11;25.90;99.90
17599;DHT22;8918;52.092;5.232;2022-07-29T13:54:36;26.00;99.90
17599;DHT22;8918;52.092;5.232;2022-07-29T13:57:07;26.20;99.90
17599;DHT22;8918;52.092;5.232;2022-07-29T13:59:33;26.40;99.90
17599;DHT22;8918;52.092;5.232;2022-07-29T14:01:59;26.60;99.90
17599;DHT22;8918;52.092;5.232;2022-07-29T14:04:28;26.80;99.90
17599;DHT22;8918;52.092;5.232;2022-07-29T14:06:53;26.80;99.90
17599;DHT22;8918;52.092;5.232;2022-07-29T14:09:19;26.90;99.90
17599;DHT22;8918;52.092;5.232;2022-07-29T14:11:45;26.90;99.90
17599;DHT22;8918;52.092;5.232;2022-07-29T14:14:11;27.00;99.90
17599;DHT22;8918;52.092;5.232;2022-07-29T14:16:36;27.00;99.90
17599;DHT22;8918;52.092;5.232;2022-07-29T14:19:02;27.00;99.90
17599;DHT22;8918;52.092;5.232;2022-07-29T14:21:28;27.10;99.90
17599;DHT22;8918;52.092;5.232;2022-07-29T14:23:54;27.00;99.90
17599;DHT22;8918;52.092;5.232;2022-07-29T14:26:20;27.10;99.90
17599;DHT22;8918;52.092;5.232;2022-07-29T14:28:46;27.10;99.90
17599;DHT22;8918;52.092;5.232;2022-07-29T14:31:12;27.20;99.90
17599;DHT22;8918;52.092;5.232;2022-07-29T14:33:38;27.10;99.90
17599;DHT22;8918;52.092;5.232;2022-07-29T14:36:03;27.10;99.90
17599;DHT22;8918;52.092;5.232;2022-07-29T14:38:29;27.20;99.90
17599;DHT22;8918;52.092;5.232;2022-07-29T14:40:57;27.30;99.90
17599;DHT22;8918;52.092;5.232;2022-07-29T14:43:23;27.40;99.90
17599;DHT22;8918;52.092;5.232;2022-07-29T14:45:49;27.30;99.90
17599;DHT22;8918;52.092;5.232;2022-07-29T14:48:14;27.30;99.90
17599;DHT22;8918;52.092;5.232;2022-07-29T14:50:40;27.40;99.90
17599;DHT22;8918;52.092;5.232;2022-07-29T14:53:05;27.40;99.90
17599;DHT22;8918;52.092;5.232;2022-07-29T14:55:31;27.50;99.90
17599;DHT22;8918;52.092;5.232;2022-07-29T14:57:57;27.50;99.90
17599;DHT22;8918;52.092;5.232;2022-07-29T15:00:27;27.50;99.90
17599;DHT22;8918;52.092;5.232;2022-07-29T15:02:57;27.50;99.90
17599;DHT22;8918;52.092;5.232;2022-07-29T15:05:23;27.60;99.90
17599;DHT22;8918;52.092;5.232;2022-07-29T15:07:49;27.70;99.90
17599;DHT22;8918;52.092;5.232;2022-07-29T15:10:15;27.80;99.90
17599;DHT22;8918;52.092;5.232;2022-07-29T15:12:43;27.80;99.30
17599;DHT22;8918;52.092;5.232;2022-07-29T15:15:09;27.90;98.60
17599;DHT22;8918;52.092;5.232;2022-07-29T15:17:35;28.00;99.10
17599;DHT22;8918;52.092;5.232;2022-07-29T15:20:00;28.00;98.50
17599;DHT22;8918;52.092;5.232;2022-07-29T15:22:29;28.10;98.30
17599;DHT22;8918;52.092;5.232;2022-07-29T15:24:58;28.10;98.70
17599;DHT22;8918;52.092;5.232;2022-07-29T15:27:23;28.20;98.20
17599;DHT22;8918;52.092;5.232;2022-07-29T15:29:50;28.30;98.60
17599;DHT22;8918;52.092;5.232;2022-07-29T15:32:16;28.30;98.20
17599;DHT22;8918;52.092;5.232;2022-07-29T15:34:41;28.10;98.30
17599;DHT22;8918;52.092;5.232;2022-07-29T15:37:07;28.10;97.80
17599;DHT22;8918;52.092;5.232;2022-07-29T15:39:32;28.20;97.60
17599;DHT22;8918;52.092;5.232;2022-07-29T15:41:58;28.30;97.70
17599;DHT22;8918;52.092;5.232;2022-07-29T15:44:28;28.30;98.00
17599;DHT22;8918;52.092;5.232;2022-07-29T15:46:53;28.30;97.80
17599;DHT22;8918;52.092;5.232;2022-07-29T15:49:29;28.40;97.40
17599;DHT22;8918;52.092;5.232;2022-07-29T15:52:02;28.60;96.70
17599;DHT22;8918;52.092;5.232;2022-07-29T15:54:29;28.70;97.30
17599;DHT22;8918;52.092;5.232;2022-07-29T15:56:57;28.80;97.00
17599;DHT22;8918;52.092;5.232;2022-07-29T15:59:23;28.80;97.00
17599;DHT22;8918;52.092;5.232;2022-07-29T16:01:50;28.80;96.90
17599;DHT22;8918;52.092;5.232;2022-07-29T16:04:16;28.80;97.10
17599;DHT22;8918;52.092;5.232;2022-07-29T16:06:43;28.80;97.70
17599;DHT22;8918;52.092;5.232;2022-07-29T16:09:09;28.90;96.80
17599;DHT22;8918;52.092;5.232;2022-07-29T16:11:35;29.00;96.80
17599;DHT22;8918;52.092;5.232;2022-07-29T16:14:01;29.20;96.20
17599;DHT22;8918;52.092;5.232;2022-07-29T16:16:30;29.30;96.40
17599;DHT22;8918;52.092;5.232;2022-07-29T16:18:57;29.50;96.60
17599;DHT22;8918;52.092;5.232;2022-07-29T16:21:23;29.50;96.80
17599;DHT22;8918;52.092;5.232;2022-07-29T16:23:49;29.50;96.90
17599;DHT22;8918;52.092;5.232;2022-07-29T16:26:15;29.40;97.10
17599;DHT22;8918;52.092;5.232;2022-07-29T16:28:41;29.40;97.20
17599;DHT22;8918;52.092;5.232;2022-07-29T16:31:06;29.40;97.80
17599;DHT22;8918;52.092;5.232;2022-07-29T16:33:32;29.50;97.90
17599;DHT22;8918;52.092;5.232;2022-07-29T16:35:58;29.50;98.10
17599;DHT22;8918;52.092;5.232;2022-07-29T16:38:24;29.80;98.00
17599;DHT22;8918;52.092;5.232;2022-07-29T16:40:49;29.80;97.70
17599;DHT22;8918;52.092;5.232;2022-07-29T16:43:15;29.90;97.10
17599;DHT22;8918;52.092;5.232;2022-07-29T16:45:40;29.80;97.60
17599;DHT22;8918;52.092;5.232;2022-07-29T16:48:06;29.60;97.90